Terminal Aerodrome Forecast
Issued by NWS

Home | Current Version | Previous Version | Text Only | Print | Product List | Glossary On
Versions: 1 2 3 4 5 6 7 8 9 10 11 12 13
000
FTUS43 KICT 251736 AAA
TAFHUT
TAF AMD
KHUT 251736Z 2518/2618 16020G30KT P6SM BKN120
     FM251900 17020G30KT P6SM SCT110
     FM260100 13010KT P6SM BKN250
     FM260400 11007KT P6SM SCT090 WS020/18035KT
     FM260600 09007KT P6SM BKN080
     FM261200 35008KT P6SM SCT035=

USA.gov is the U.S. government's official web portal to all federal, state and local government web resources and services.